Time;durP1;ratioP1;P1;durP2;ratioP2;P2;SDS_P1;SDS_P2;PMS_P1;PMS_P2;Temp;Humidity;BMP_temperature;BMP_pressure;BME280_temperature;BME280_humidity;BME280_pressure;Samples;Min_cycle;Max_cycle;Signal;HPM_P1;HPM_P2
2021/07/06 00:00:13;;;;;;;7.96;4.64;;;;;;;;;;374851;105;1961960;-71
2021/07/06 00:01:29;;;;;;;10.79;4.83;;;;;;;;;;393858;104;1985994;-73
2021/07/06 00:02:34;;;;;;;9.27;4.63;;;;;;;;;;374116;106;1965955;-71
2021/07/06 00:03:40;;;;;;;7.46;4.36;;;;;;;;;;373625;107;1962038;-71
2021/07/06 00:04:47;;;;;;;9.34;4.74;;;;;;;;;;373969;107;1961873;-72
2021/07/06 00:05:52;;;;;;;8.58;4.60;;;;;;;;;;363200;107;1962054;-72
2021/07/06 00:06:57;;;;;;;9.28;4.81;;;;;;;;;;348562;109;1962026;-73
2021/07/06 00:08:02;;;;;;;8.67;4.78;;;;;;;;;;340975;107;1983994;-71
2021/07/06 00:09:08;;;;;;;11.48;5.34;;;;;;;;;;305794;108;2308917;-71
2021/07/06 00:10:20;;;;;;;8.42;4.98;;;;;;;;;;400294;101;1986985;-74
2021/07/06 00:11:25;;;;;;;7.49;4.77;;;;;;;;;;383306;103;1961885;-72
2021/07/06 00:12:30;;;;;;;8.09;4.68;;;;;;;;;;383518;103;1960593;-72
2021/07/06 00:13:35;;;;;;;10.24;5.29;;;;;;;;;;382827;103;1961904;-71
2021/07/06 00:14:40;;;;;;;9.49;4.62;;;;;;;;;;382961;103;1961944;-72
2021/07/06 00:15:45;;;;;;;7.80;4.62;;;;;;;;;;383398;105;1961952;-72
2021/07/06 00:16:52;;;;;;;8.76;4.41;;;;;;;;;;382888;105;1963968;-72
2021/07/06 00:17:57;;;;;;;9.69;4.44;;;;;;;;;;385520;103;1964026;-72
2021/07/06 00:19:02;;;;;;;7.74;4.66;;;;;;;;;;382413;103;1961978;-72
2021/07/06 00:20:14;;;;;;;7.37;4.51;;;;;;;;;;398420;103;1986009;-72
2021/07/06 00:21:19;;;;;;;9.32;4.40;;;;;;;;;;377824;105;1961954;-71
2021/07/06 00:22:24;;;;;;;7.96;4.08;;;;;;;;;;377191;106;1962852;-70
2021/07/06 00:23:29;;;;;;;9.59;4.45;;;;;;;;;;377933;106;1963917;-72
2021/07/06 00:24:34;;;;;;;8.13;5.29;;;;;;;;;;369639;108;1962978;-72
2021/07/06 00:25:38;;;;;;;9.71;4.77;;;;;;;;;;372322;108;1962079;-72
2021/07/06 00:26:45;;;;;;;6.57;4.26;;;;;;;;;;380000;106;1963936;-72
2021/07/06 00:27:50;;;;;;;7.79;4.51;;;;;;;;;;377918;105;1962099;-71
2021/07/06 00:28:55;;;;;;;9.79;4.78;;;;;;;;;;377436;105;1961958;-72
2021/07/06 00:30:07;;;;;;;7.75;4.15;;;;;;;;;;402858;101;1986018;-72
2021/07/06 00:31:12;;;;;;;8.38;4.26;;;;;;;;;;386287;104;1961865;-72
2021/07/06 00:32:18;;;;;;;8.98;4.59;;;;;;;;;;380726;104;1961917;-72
2021/07/06 00:33:28;;;;;;;10.32;4.46;;;;;;;;;;381961;106;1961932;-72
2021/07/06 00:34:31;;;;;;;9.32;4.37;;;;;;;;;;364957;104;2849997;-73
2021/07/06 00:35:36;;;;;;;10.54;4.51;;;;;;;;;;333563;104;2191910;-72
2021/07/06 00:36:42;;;;;;;8.73;4.69;;;;;;;;;;328418;106;2205299;-72
2021/07/06 00:37:47;;;;;;;7.49;4.74;;;;;;;;;;316458;105;2301882;-73
2021/07/06 00:38:53;;;;;;;7.21;4.39;;;;;;;;;;371916;106;1961041;-72
2021/07/06 00:40:05;;;;;;;7.18;4.28;;;;;;;;;;400742;101;1985909;-71
2021/07/06 00:41:10;;;;;;;7.51;4.61;;;;;;;;;;383815;103;1962045;-72
2021/07/06 00:42:15;;;;;;;8.90;4.58;;;;;;;;;;384114;103;1962033;-72
2021/07/06 00:43:28;;;;;;;7.92;4.26;;;;;;;;;;397704;104;1986061;-73
2021/07/06 00:44:34;;;;;;;8.64;4.94;;;;;;;;;;321633;109;2846938;-73
2021/07/06 00:45:39;;;;;;;8.68;4.57;;;;;;;;;;325878;105;2209939;-72
2021/07/06 00:46:46;;;;;;;10.04;4.84;;;;;;;;;;377453;106;1961959;-71
2021/07/06 00:47:51;;;;;;;8.04;4.30;;;;;;;;;;375851;107;1964970;-72
2021/07/06 00:48:56;;;;;;;9.83;4.82;;;;;;;;;;376109;105;1961994;-71
2021/07/06 00:50:09;;;;;;;8.65;4.61;;;;;;;;;;393075;104;1985953;-72
2021/07/06 00:51:15;;;;;;;10.02;4.36;;;;;;;;;;375781;106;1962051;-72
2021/07/06 00:52:20;;;;;;;7.16;4.69;;;;;;;;;;375452;106;1962066;-73
2021/07/06 00:53:27;;;;;;;8.13;4.41;;;;;;;;;;375817;106;1961937;-71
2021/07/06 00:54:32;;;;;;;9.57;4.67;;;;;;;;;;322570;106;2192974;-72
2021/07/06 00:55:38;;;;;;;7.93;4.57;;;;;;;;;;336622;105;2511051;-72
2021/07/06 00:56:44;;;;;;;7.61;4.37;;;;;;;;;;376109;106;1962004;-72
2021/07/06 00:57:49;;;;;;;10.99;5.14;;;;;;;;;;375822;106;1961824;-73
2021/07/06 00:58:55;;;;;;;6.93;4.41;;;;;;;;;;376300;106;1962004;-72
2021/07/06 01:00:06;;;;;;;7.43;4.44;;;;;;;;;;376508;106;1965931;-71
2021/07/06 01:01:18;;;;;;;8.59;4.56;;;;;;;;;;383557;103;2961816;-71
2021/07/06 01:02:24;;;;;;;8.51;4.66;;;;;;;;;;376382;106;1961754;-72
2021/07/06 01:03:35;;;;;;;7.91;4.73;;;;;;;;;;385080;101;2070823;-71
2021/07/06 01:04:40;;;;;;;8.28;4.47;;;;;;;;;;334372;103;2147964;-72
2021/07/06 01:06:04;;;;;;;7.64;4.67;;;;;;;;;;382143;105;1960941;-71
2021/07/06 01:07:15;;;;;;;7.73;4.39;;;;;;;;;;386376;104;2936036;-71
2021/07/06 01:08:21;;;;;;;7.10;4.50;;;;;;;;;;376251;107;1960901;-72
2021/07/06 01:09:26;;;;;;;8.17;4.78;;;;;;;;;;368505;109;1960940;-73
2021/07/06 01:10:33;;;;;;;9.19;4.35;;;;;;;;;;349768;108;1960774;-72
2021/07/06 01:11:38;;;;;;;8.56;4.90;;;;;;;;;;343658;106;1962807;-72
2021/07/06 01:12:52;;;;;;;9.06;4.39;;;;;;;;;;396971;101;1984668;-72
2021/07/06 01:13:57;;;;;;;6.93;4.43;;;;;;;;;;380755;105;1960931;-72
2021/07/06 01:15:04;;;;;;;8.58;5.07;;;;;;;;;;379749;105;1961989;-72
2021/07/06 01:16:09;;;;;;;8.03;4.62;;;;;;;;;;355598;105;1961960;-71
2021/07/06 01:17:14;;;;;;;7.16;4.77;;;;;;;;;;334344;106;2098006;-71
2021/07/06 01:18:21;;;;;;;7.25;5.03;;;;;;;;;;322763;106;2191009;-72
2021/07/06 01:19:33;;;;;;;10.31;4.99;;;;;;;;;;392645;103;1963697;-72
2021/07/06 01:20:44;;;;;;;7.13;4.57;;;;;;;;;;372478;107;1961989;-72
2021/07/06 01:22:04;;;;;;;6.92;4.65;;;;;;;;;;389451;101;1986957;-72
2021/07/06 01:23:09;;;;;;;9.31;4.98;;;;;;;;;;389034;103;1962021;-72
2021/07/06 01:24:32;;;;;;;13.38;5.27;;;;;;;;;;340058;103;2149999;-71
2021/07/06 01:25:39;;;;;;;9.50;4.45;;;;;;;;;;363101;103;1961825;-72
2021/07/06 01:26:51;;;;;;;9.28;4.95;;;;;;;;;;385512;106;1973153;-71
2021/07/06 01:27:57;;;;;;;9.27;4.77;;;;;;;;;;367424;109;1969955;-72
2021/07/06 01:29:02;;;;;;;8.76;4.97;;;;;;;;;;367787;109;1962018;-72
2021/07/06 01:30:09;;;;;;;10.10;4.92;;;;;;;;;;367647;107;1961961;-71
2021/07/06 01:31:14;;;;;;;8.01;4.92;;;;;;;;;;358494;109;1961924;-71
2021/07/06 01:32:20;;;;;;;10.30;5.35;;;;;;;;;;363715;109;1961939;-71
2021/07/06 01:33:26;;;;;;;9.84;4.39;;;;;;;;;;364016;110;1962026;-73
2021/07/06 01:34:31;;;;;;;9.32;5.32;;;;;;;;;;365373;110;1962903;-70
2021/07/06 01:35:43;;;;;;;7.43;4.67;;;;;;;;;;391168;103;1987036;-70
2021/07/06 01:36:48;;;;;;;8.95;5.77;;;;;;;;;;370107;107;1969077;-71
2021/07/06 01:37:55;;;;;;;8.01;4.79;;;;;;;;;;368950;108;1961948;-72
2021/07/06 01:39:08;;;;;;;7.73;4.41;;;;;;;;;;372691;109;1993002;-72
2021/07/06 01:40:14;;;;;;;9.34;4.90;;;;;;;;;;357569;113;1969070;-72
2021/07/06 01:41:26;;;;;;;9.92;4.81;;;;;;;;;;394656;104;1965828;-72
2021/07/06 01:42:32;;;;;;;9.24;4.57;;;;;;;;;;374397;107;1963018;-72
2021/07/06 01:43:55;;;;;;;7.41;4.16;;;;;;;;;;376307;107;1964856;-72
2021/07/06 01:45:11;;;;;;;7.29;4.58;;;;;;;;;;369324;110;1985912;-71
2021/07/06 01:46:18;;;;;;;7.44;4.84;;;;;;;;;;319049;111;2662017;-71
2021/07/06 01:47:24;;;;;;;8.01;4.36;;;;;;;;;;294176;111;2307002;-71
2021/07/06 01:48:30;;;;;;;7.43;4.62;;;;;;;;;;290857;112;2330889;-72
2021/07/06 01:49:35;;;;;;;7.19;4.47;;;;;;;;;;343109;113;1960864;-72
2021/07/06 01:50:43;;;;;;;7.21;4.49;;;;;;;;;;356542;112;1963972;-72
2021/07/06 01:51:48;;;;;;;8.79;4.37;;;;;;;;;;356550;114;1962953;-70
2021/07/06 01:52:54;;;;;;;8.58;4.76;;;;;;;;;;355992;114;1963041;-71
2021/07/06 01:54:00;;;;;;;9.29;3.90;;;;;;;;;;354929;112;1961952;-72
2021/07/06 01:55:05;;;;;;;8.91;4.45;;;;;;;;;;355769;111;1962023;-72
2021/07/06 01:56:11;;;;;;;9.20;4.77;;;;;;;;;;318871;112;2681012;-71
2021/07/06 01:57:17;;;;;;;8.37;4.85;;;;;;;;;;322861;112;2616902;-72
2021/07/06 01:58:23;;;;;;;9.31;4.49;;;;;;;;;;319453;112;2506078;-71
2021/07/06 01:59:34;;;;;;;9.63;4.44;;;;;;;;;;388231;106;1974957;-72
2021/07/06 02:00:54;;;;;;;7.91;3.91;;;;;;;;;;363666;108;1962901;-72
2021/07/06 02:01:59;;;;;;;7.91;4.78;;;;;;;;;;351778;113;1962989;-72
2021/07/06 02:03:04;;;;;;;8.04;4.64;;;;;;;;;;343318;116;1961902;-71
2021/07/06 02:04:10;;;;;;;10.06;4.49;;;;;;;;;;349948;113;1962098;-71
2021/07/06 02:05:17;;;;;;;12.48;4.82;;;;;;;;;;349009;114;1961995;-72
2021/07/06 02:06:23;;;;;;;7.08;4.19;;;;;;;;;;338380;116;2846926;-71
2021/07/06 02:07:28;;;;;;;7.19;4.57;;;;;;;;;;347652;115;1962028;-72
2021/07/06 02:08:34;;;;;;;8.28;4.69;;;;;;;;;;347144;116;1961940;-72
2021/07/06 02:09:39;;;;;;;8.39;4.00;;;;;;;;;;349685;113;1961970;-72
2021/07/06 02:10:47;;;;;;;10.43;4.79;;;;;;;;;;337884;115;1961916;-72
2021/07/06 02:11:52;;;;;;;6.72;4.29;;;;;;;;;;351161;113;1961046;-72
2021/07/06 02:12:59;;;;;;;7.97;4.32;;;;;;;;;;351574;115;1963038;-72
2021/07/06 02:14:04;;;;;;;8.98;5.06;;;;;;;;;;349439;114;1961905;-71
2021/07/06 02:15:16;;;;;;;10.05;4.85;;;;;;;;;;383089;104;2978993;-71
2021/07/06 02:16:22;;;;;;;8.56;4.31;;;;;;;;;;300450;106;2398933;-71
2021/07/06 02:17:28;;;;;;;7.63;4.45;;;;;;;;;;358151;107;1962072;-71
2021/07/06 02:18:33;;;;;;;8.03;4.40;;;;;;;;;;369172;105;1962017;-72
2021/07/06 02:19:38;;;;;;;8.14;4.47;;;;;;;;;;348538;107;1961832;-71
2021/07/06 02:20:46;;;;;;;9.91;4.90;;;;;;;;;;374159;106;1960740;-72
2021/07/06 02:21:51;;;;;;;10.17;5.05;;;;;;;;;;375581;106;1961829;-71
2021/07/06 02:22:56;;;;;;;9.82;4.98;;;;;;;;;;375161;106;1963051;-72
2021/07/06 02:24:01;;;;;;;8.53;4.72;;;;;;;;;;375715;106;1961870;-72
2021/07/06 02:25:06;;;;;;;10.10;4.48;;;;;;;;;;376214;107;1961074;-73
2021/07/06 02:26:12;;;;;;;9.47;4.40;;;;;;;;;;374933;107;1961981;-72
2021/07/06 02:27:17;;;;;;;9.68;5.32;;;;;;;;;;377665;106;1960813;-72
2021/07/06 02:28:29;;;;;;;8.94;4.92;;;;;;;;;;400838;103;1985980;-72
2021/07/06 02:29:34;;;;;;;7.88;4.38;;;;;;;;;;374175;106;1962012;-72
2021/07/06 02:30:41;;;;;;;8.34;4.43;;;;;;;;;;366946;105;2873951;-71
2021/07/06 02:31:46;;;;;;;8.34;4.56;;;;;;;;;;369244;108;1962015;-71
2021/07/06 02:32:52;;;;;;;9.78;4.81;;;;;;;;;;368781;106;2934105;-71
2021/07/06 02:33:58;;;;;;;8.62;5.17;;;;;;;;;;340059;106;2642999;-71
2021/07/06 02:35:05;;;;;;;10.05;4.23;;;;;;;;;;324892;106;2450074;-72
2021/07/06 02:36:17;;;;;;;8.46;4.52;;;;;;;;;;388954;104;1985961;-71
2021/07/06 02:37:23;;;;;;;10.57;4.32;;;;;;;;;;370967;107;1966959;-72
2021/07/06 02:38:28;;;;;;;7.71;4.67;;;;;;;;;;371252;108;1961947;-72
2021/07/06 02:39:33;;;;;;;9.06;4.35;;;;;;;;;;371753;107;1961873;-72
2021/07/06 02:40:40;;;;;;;13.66;5.52;;;;;;;;;;351598;108;1962953;-72
2021/07/06 02:41:58;;;;;;;8.14;4.26;;;;;;;;;;351601;108;1963954;-71
2021/07/06 02:43:55;;;;;;;7.94;4.44;;;;;;;;;;371134;108;1960665;-72
2021/07/06 02:45:51;;;;;;;8.51;4.41;;;;;;;;;;370236;107;1961970;-73
2021/07/06 02:47:41;;;;;;;11.29;5.72;;;;;;;;;;369506;108;1962043;-72
2021/07/06 02:49:13;;;;;;;7.14;4.71;;;;;;;;;;393415;104;2047843;-70
2021/07/06 02:50:21;;;;;;;7.01;4.06;;;;;;;;;;375787;106;1969978;-72
2021/07/06 02:51:26;;;;;;;8.14;4.36;;;;;;;;;;370461;106;1962345;-73
2021/07/06 02:52:31;;;;;;;8.63;4.74;;;;;;;;;;370403;107;1963937;-71
2021/07/06 02:53:36;;;;;;;8.71;4.97;;;;;;;;;;369117;108;1962061;-69
2021/07/06 02:54:41;;;;;;;9.55;4.68;;;;;;;;;;371840;108;1961981;-71
2021/07/06 02:55:52;;;;;;;9.74;5.10;;;;;;;;;;392379;104;1987026;-73
2021/07/06 02:56:57;;;;;;;11.95;5.54;;;;;;;;;;369519;107;1961780;-73
2021/07/06 02:58:03;;;;;;;8.06;5.01;;;;;;;;;;369579;107;1961865;-72
2021/07/06 02:59:07;;;;;;;7.81;4.57;;;;;;;;;;370108;107;1962046;-69
2021/07/06 03:00:14;;;;;;;10.49;5.33;;;;;;;;;;369803;107;1961938;-71
2021/07/06 03:01:22;;;;;;;10.03;4.76;;;;;;;;;;373897;107;1961976;-72
2021/07/06 03:02:27;;;;;;;10.68;5.03;;;;;;;;;;367676;107;1962053;-70
2021/07/06 03:03:33;;;;;;;9.93;5.03;;;;;;;;;;369077;107;1963900;-71
2021/07/06 03:04:38;;;;;;;11.64;4.90;;;;;;;;;;369654;108;1963056;-72
2021/07/06 03:05:49;;;;;;;10.24;5.56;;;;;;;;;;389262;104;1987000;-72
2021/07/06 03:06:54;;;;;;;8.41;4.69;;;;;;;;;;368042;107;1965005;-72
2021/07/06 03:08:00;;;;;;;9.76;5.14;;;;;;;;;;371596;107;1961948;-71
2021/07/06 03:09:05;;;;;;;9.29;5.12;;;;;;;;;;369600;108;1962845;-70
2021/07/06 03:10:12;;;;;;;8.22;4.86;;;;;;;;;;370726;107;1964000;-70
2021/07/06 03:11:23;;;;;;;8.19;4.94;;;;;;;;;;392919;103;1970880;-73
2021/07/06 03:12:29;;;;;;;10.23;5.21;;;;;;;;;;378300;106;1961056;-72
2021/07/06 03:13:34;;;;;;;9.02;5.35;;;;;;;;;;375531;106;1960784;-71
2021/07/06 03:14:39;;;;;;;8.87;4.21;;;;;;;;;;368912;107;1964994;-70
2021/07/06 03:15:45;;;;;;;8.57;5.27;;;;;;;;;;374640;106;1962060;-71
2021/07/06 03:16:50;;;;;;;9.61;5.31;;;;;;;;;;372316;107;1960851;-71
2021/07/06 03:17:55;;;;;;;8.85;4.60;;;;;;;;;;372390;107;1960804;-71
2021/07/06 03:19:01;;;;;;;7.71;4.32;;;;;;;;;;372123;107;1960699;-71
2021/07/06 03:20:07;;;;;;;11.54;5.22;;;;;;;;;;370610;107;1960925;-71
2021/07/06 03:21:18;;;;;;;12.52;5.34;;;;;;;;;;384820;104;2070841;-70
2021/07/06 03:22:23;;;;;;;7.65;4.82;;;;;;;;;;346285;106;2000922;-72
2021/07/06 03:23:34;;;;;;;8.37;5.01;;;;;;;;;;399649;104;1985016;-72
2021/07/06 03:24:39;;;;;;;9.24;4.62;;;;;;;;;;382567;105;1960885;-72
2021/07/06 03:25:44;;;;;;;9.28;4.57;;;;;;;;;;358608;105;1960753;-71
2021/07/06 03:26:49;;;;;;;11.81;5.37;;;;;;;;;;349401;106;1963051;-72
2021/07/06 03:27:56;;;;;;;10.88;5.08;;;;;;;;;;311321;107;2303982;-71
2021/07/06 03:29:01;;;;;;;9.72;5.16;;;;;;;;;;370303;109;1961948;-70
2021/07/06 03:30:11;;;;;;;7.34;4.24;;;;;;;;;;374479;106;1962005;-72
2021/07/06 03:31:16;;;;;;;9.33;5.46;;;;;;;;;;322146;106;2490909;-72
2021/07/06 03:32:21;;;;;;;9.26;5.91;;;;;;;;;;301570;106;2404426;-71
2021/07/06 03:33:27;;;;;;;10.83;7.13;;;;;;;;;;313638;106;2299861;-73
2021/07/06 03:34:39;;;;;;;12.37;6.14;;;;;;;;;;401763;101;1986008;-71
2021/07/06 03:35:46;;;;;;;9.89;5.45;;;;;;;;;;379664;106;1963033;-72
2021/07/06 03:36:51;;;;;;;10.89;5.59;;;;;;;;;;378951;105;1961949;-73
2021/07/06 03:37:57;;;;;;;11.28;6.46;;;;;;;;;;378567;105;1963031;-72
2021/07/06 03:39:04;;;;;;;10.05;5.44;;;;;;;;;;352513;107;2867967;-71
2021/07/06 03:40:10;;;;;;;13.30;5.32;;;;;;;;;;314710;105;2312993;-71
2021/07/06 03:41:21;;;;;;;12.04;5.16;;;;;;;;;;393815;105;1961973;-72
2021/07/06 03:42:26;;;;;;;12.43;6.43;;;;;;;;;;372512;106;1961980;-71
2021/07/06 03:43:37;;;;;;;13.36;5.88;;;;;;;;;;384869;106;1990001;-72
2021/07/06 03:44:42;;;;;;;10.18;5.64;;;;;;;;;;364372;107;1969057;-72
2021/07/06 03:45:47;;;;;;;15.97;5.50;;;;;;;;;;366038;108;1962071;-71
2021/07/06 03:46:58;;;;;;;11.08;6.25;;;;;;;;;;383139;105;1985926;-72
2021/07/06 03:48:04;;;;;;;10.21;5.71;;;;;;;;;;368473;107;1961917;-70
2021/07/06 03:49:09;;;;;;;14.76;9.91;;;;;;;;;;366881;107;1962021;-71
2021/07/06 03:50:19;;;;;;;12.93;8.58;;;;;;;;;;365405;107;1961980;-72
2021/07/06 03:51:24;;;;;;;12.42;6.63;;;;;;;;;;359015;112;1962020;-72
2021/07/06 03:52:30;;;;;;;8.82;5.42;;;;;;;;;;362071;109;1961018;-71
2021/07/06 03:53:35;;;;;;;12.17;5.62;;;;;;;;;;361896;111;1961908;-71
2021/07/06 03:54:39;;;;;;;7.87;4.88;;;;;;;;;;363159;111;1964078;-72
2021/07/06 03:55:44;;;;;;;11.81;5.85;;;;;;;;;;343773;109;1962015;-71
2021/07/06 03:56:50;;;;;;;9.84;5.89;;;;;;;;;;339742;109;1961920;-72
2021/07/06 03:57:56;;;;;;;9.62;5.33;;;;;;;;;;289354;114;2311998;-72
2021/07/06 03:59:07;;;;;;;12.50;6.11;;;;;;;;;;390440;104;2073047;-72
2021/07/06 04:00:13;;;;;;;9.78;5.89;;;;;;;;;;375479;106;1968927;-71
2021/07/06 04:01:27;;;;;;;10.55;5.53;;;;;;;;;;354944;104;2702910;-71
2021/07/06 04:02:32;;;;;;;12.63;6.77;;;;;;;;;;351481;103;1967796;-71
2021/07/06 04:03:55;;;;;;;10.01;5.78;;;;;;;;;;376143;103;1960797;-71
2021/07/06 04:05:08;;;;;;;11.94;5.25;;;;;;;;;;403031;101;1984806;-70
2021/07/06 04:06:24;;;;;;;7.81;4.96;;;;;;;;;;359809;105;1963735;-72
2021/07/06 04:07:29;;;;;;;10.12;5.23;;;;;;;;;;343358;110;1961855;-71
2021/07/06 04:08:34;;;;;;;11.05;5.87;;;;;;;;;;303380;110;2305932;-71
2021/07/06 04:09:39;;;;;;;11.33;6.10;;;;;;;;;;298591;110;2437962;-72
2021/07/06 04:10:45;;;;;;;8.87;5.67;;;;;;;;;;315361;108;2191996;-73
2021/07/06 04:11:52;;;;;;;9.91;5.34;;;;;;;;;;359636;110;1962060;-70
2021/07/06 04:12:57;;;;;;;11.39;7.23;;;;;;;;;;360354;110;1962033;-70
2021/07/06 04:14:16;;;;;;;13.00;6.82;;;;;;;;;;359299;111;1962000;-72
2021/07/06 04:16:13;;;;;;;12.86;6.16;;;;;;;;;;354971;112;1962046;-73
2021/07/06 04:18:10;;;;;;;9.79;5.56;;;;;;;;;;315335;111;2838971;-72
2021/07/06 04:20:07;;;;;;;10.47;5.76;;;;;;;;;;357829;111;1962059;-73
2021/07/06 04:21:25;;;;;;;11.92;5.79;;;;;;;;;;357109;111;1961979;-73
2021/07/06 04:22:31;;;;;;;11.25;6.16;;;;;;;;;;355830;111;1961935;-73
2021/07/06 04:23:43;;;;;;;9.61;5.62;;;;;;;;;;393129;103;1986066;-73
2021/07/06 04:24:48;;;;;;;13.52;7.46;;;;;;;;;;375567;105;1964993;-73
2021/07/06 04:25:54;;;;;;;12.36;6.42;;;;;;;;;;377171;105;1963085;-72
2021/07/06 04:27:00;;;;;;;11.37;5.94;;;;;;;;;;382577;106;1961994;-73
2021/07/06 04:28:06;;;;;;;11.53;6.38;;;;;;;;;;330469;106;2841033;-73
2021/07/06 04:29:12;;;;;;;11.08;6.52;;;;;;;;;;305205;106;2398038;-72
2021/07/06 04:30:18;;;;;;;12.32;6.73;;;;;;;;;;377209;105;1964038;-72
2021/07/06 04:31:22;;;;;;;15.43;8.76;;;;;;;;;;380210;105;1961935;-72
2021/07/06 04:32:28;;;;;;;11.42;6.41;;;;;;;;;;377870;106;1962005;-73
2021/07/06 04:33:33;;;;;;;11.49;5.94;;;;;;;;;;364747;106;1963065;-72
2021/07/06 04:34:38;;;;;;;12.48;5.91;;;;;;;;;;373210;105;1964900;-73
2021/07/06 04:35:43;;;;;;;11.21;6.21;;;;;;;;;;353253;106;1976033;-72
2021/07/06 04:37:15;;;;;;;12.36;6.37;;;;;;;;;;411339;99;1985907;-74
2021/07/06 04:38:20;;;;;;;12.60;7.92;;;;;;;;;;390477;101;1969983;-74
2021/07/06 04:39:25;;;;;;;12.59;6.79;;;;;;;;;;361100;101;1994938;-72
2021/07/06 04:40:30;;;;;;;10.24;6.66;;;;;;;;;;373918;101;1964948;-72
2021/07/06 04:41:43;;;;;;;24.72;10.18;;;;;;;;;;393448;104;1985879;-73
2021/07/06 04:42:49;;;;;;;11.62;6.27;;;;;;;;;;374681;107;1961941;-74
2021/07/06 04:43:55;;;;;;;9.39;5.98;;;;;;;;;;373940;107;1962018;-73
2021/07/06 04:45:01;;;;;;;11.64;6.46;;;;;;;;;;374913;105;1961926;-73
2021/07/06 04:46:06;;;;;;;13.69;6.68;;;;;;;;;;378980;105;1962003;-73
2021/07/06 04:47:11;;;;;;;14.49;6.82;;;;;;;;;;379122;105;1961872;-74
2021/07/06 04:48:17;;;;;;;12.44;6.26;;;;;;;;;;378001;105;1964087;-74
2021/07/06 04:49:29;;;;;;;21.16;14.12;;;;;;;;;;353217;106;2073874;-73
2021/07/06 04:50:37;;;;;;;17.76;8.25;;;;;;;;;;366593;108;1964977;-74
2021/07/06 04:51:43;;;;;;;16.32;7.74;;;;;;;;;;361053;110;1965039;-73
2021/07/06 04:52:49;;;;;;;10.98;6.20;;;;;;;;;;363007;112;1963019;-73
2021/07/06 04:53:54;;;;;;;15.42;7.65;;;;;;;;;;361473;110;1961943;-73
2021/07/06 04:54:59;;;;;;;12.02;6.53;;;;;;;;;;360969;109;1963983;-73
2021/07/06 04:56:05;;;;;;;13.16;7.09;;;;;;;;;;360104;109;1962073;-73
2021/07/06 04:57:10;;;;;;;16.59;7.65;;;;;;;;;;353483;111;2895943;-72
2021/07/06 04:58:15;;;;;;;15.01;8.31;;;;;;;;;;360472;112;1961999;-73
2021/07/06 04:59:21;;;;;;;19.31;8.86;;;;;;;;;;359982;110;1963042;-72
2021/07/06 05:00:27;;;;;;;12.59;7.79;;;;;;;;;;309914;114;2735964;-72
2021/07/06 05:01:33;;;;;;;11.99;6.75;;;;;;;;;;290374;109;2409025;-74
2021/07/06 05:02:38;;;;;;;10.85;6.30;;;;;;;;;;288174;110;2426970;-73
2021/07/06 05:03:44;;;;;;;11.47;6.55;;;;;;;;;;318518;111;2143973;-74
2021/07/06 05:04:49;;;;;;;12.70;6.94;;;;;;;;;;299290;109;2328992;-75
2021/07/06 05:05:55;;;;;;;12.52;6.99;;;;;;;;;;306968;111;2502993;-72
2021/07/06 05:07:01;;;;;;;14.74;7.04;;;;;;;;;;354397;111;1962004;-72
2021/07/06 05:08:08;;;;;;;11.83;7.79;;;;;;;;;;361566;110;1963974;-72
2021/07/06 05:09:13;;;;;;;14.06;7.85;;;;;;;;;;358506;112;1961971;-72
2021/07/06 05:10:20;;;;;;;12.51;7.31;;;;;;;;;;349532;112;2943983;-73
2021/07/06 05:11:25;;;;;;;15.61;8.39;;;;;;;;;;359497;112;1961980;-73
2021/07/06 05:12:31;;;;;;;12.49;7.51;;;;;;;;;;351833;112;2871937;-72
2021/07/06 05:13:36;;;;;;;12.14;7.53;;;;;;;;;;359146;112;1960914;-73
2021/07/06 05:14:41;;;;;;;10.76;6.75;;;;;;;;;;358983;111;1960825;-73
2021/07/06 05:15:47;;;;;;;13.71;7.70;;;;;;;;;;360527;110;1961963;-73
2021/07/06 05:16:52;;;;;;;9.93;6.94;;;;;;;;;;361120;109;1960729;-72
2021/07/06 05:17:58;;;;;;;11.84;7.06;;;;;;;;;;362172;111;1960884;-72
2021/07/06 05:19:03;;;;;;;16.18;11.80;;;;;;;;;;362667;109;1960824;-73
2021/07/06 05:20:10;;;;;;;12.56;7.16;;;;;;;;;;298394;113;2294667;-73
2021/07/06 05:21:17;;;;;;;13.16;7.04;;;;;;;;;;354825;112;1960922;-72
2021/07/06 05:22:24;;;;;;;12.82;6.63;;;;;;;;;;362290;111;1960813;-73
2021/07/06 05:23:36;;;;;;;12.07;7.18;;;;;;;;;;353742;106;2129862;-72
2021/07/06 05:24:41;;;;;;;14.31;7.38;;;;;;;;;;305663;107;2358881;-74
2021/07/06 05:25:46;;;;;;;12.27;7.30;;;;;;;;;;340832;107;2040831;-72
2021/07/06 05:26:53;;;;;;;15.94;6.64;;;;;;;;;;370947;108;1960852;-73
2021/07/06 05:27:58;;;;;;;14.52;8.50;;;;;;;;;;362959;105;1960897;-73
2021/07/06 05:29:04;;;;;;;10.62;7.03;;;;;;;;;;357646;107;1960799;-73
2021/07/06 05:30:16;;;;;;;11.62;7.28;;;;;;;;;;395401;104;1960816;-74
2021/07/06 05:31:21;;;;;;;15.47;8.82;;;;;;;;;;368407;108;1961971;-73
2021/07/06 05:32:26;;;;;;;13.22;8.22;;;;;;;;;;361729;111;1962041;-73
2021/07/06 05:33:32;;;;;;;12.30;8.12;;;;;;;;;;369788;107;1961943;-73
2021/07/06 05:34:37;;;;;;;12.75;7.49;;;;;;;;;;369082;108;1961819;-73
2021/07/06 05:35:42;;;;;;;14.80;8.25;;;;;;;;;;372256;107;1961894;-73
2021/07/06 05:36:48;;;;;;;11.48;7.33;;;;;;;;;;366278;107;1962002;-73
2021/07/06 05:37:53;;;;;;;13.24;7.09;;;;;;;;;;367850;108;1961953;-72
2021/07/06 05:39:01;;;;;;;12.22;7.45;;;;;;;;;;359642;110;1961902;-73
2021/07/06 05:40:09;;;;;;;14.47;6.99;;;;;;;;;;315638;107;2504988;-73
2021/07/06 05:41:14;;;;;;;11.25;6.46;;;;;;;;;;371154;104;1962013;-74
2021/07/06 05:42:19;;;;;;;11.77;7.64;;;;;;;;;;372691;107;1963073;-73
2021/07/06 05:43:26;;;;;;;14.56;6.92;;;;;;;;;;369259;107;1962999;-74
2021/07/06 05:44:32;;;;;;;13.66;7.90;;;;;;;;;;368904;109;1962003;-73
2021/07/06 05:45:38;;;;;;;11.76;7.28;;;;;;;;;;367237;107;1962020;-73
2021/07/06 05:46:56;;;;;;;13.73;8.03;;;;;;;;;;366147;110;1963981;-73
2021/07/06 05:48:01;;;;;;;12.36;7.49;;;;;;;;;;377555;105;1961986;-74
2021/07/06 05:49:06;;;;;;;13.84;7.58;;;;;;;;;;376972;106;1961919;-74
2021/07/06 05:50:13;;;;;;;14.98;8.42;;;;;;;;;;375870;106;1961912;-73
2021/07/06 05:51:18;;;;;;;15.73;8.73;;;;;;;;;;365765;108;1961994;-72
2021/07/06 05:52:34;;;;;;;12.91;6.89;;;;;;;;;;359535;110;1964991;-73
2021/07/06 05:53:43;;;;;;;12.32;7.79;;;;;;;;;;356561;112;1961904;-72
2021/07/06 05:54:47;;;;;;;16.29;7.73;;;;;;;;;;356558;110;1962052;-71
2021/07/06 05:55:52;;;;;;;10.63;7.47;;;;;;;;;;330871;110;2006920;-72
2021/07/06 05:56:58;;;;;;;14.22;7.44;;;;;;;;;;325799;109;2032859;-73
2021/07/06 05:58:03;;;;;;;10.08;7.30;;;;;;;;;;305914;109;2279054;-73
2021/07/06 05:59:09;;;;;;;15.71;8.56;;;;;;;;;;304431;108;2352931;-74
2021/07/06 06:00:15;;;;;;;16.67;10.20;;;;;;;;;;329102;107;2141955;-73
2021/07/06 06:01:23;;;;;;;13.24;8.21;;;;;;;;;;364594;109;1964054;-73
2021/07/06 06:02:29;;;;;;;11.86;9.54;;;;;;;;;;365569;109;1962956;-73
2021/07/06 06:03:34;;;;;;;12.11;7.36;;;;;;;;;;364409;109;1961821;-72
2021/07/06 06:04:40;;;;;;;11.29;6.47;;;;;;;;;;364876;109;1962980;-73
2021/07/06 06:05:45;;;;;;;14.05;7.77;;;;;;;;;;364836;109;1961980;-72
2021/07/06 06:06:52;;;;;;;12.51;7.56;;;;;;;;;;357744;109;1960922;-73
2021/07/06 06:07:57;;;;;;;11.17;7.20;;;;;;;;;;330321;109;2072932;-73
2021/07/06 06:09:03;;;;;;;10.36;6.26;;;;;;;;;;358333;109;1961987;-73
2021/07/06 06:10:09;;;;;;;9.65;6.44;;;;;;;;;;353096;111;1962003;-73
2021/07/06 06:11:14;;;;;;;11.68;7.68;;;;;;;;;;363122;109;1962025;-73
2021/07/06 06:12:20;;;;;;;16.32;7.78;;;;;;;;;;366874;109;1961871;-73
2021/07/06 06:13:25;;;;;;;14.11;7.31;;;;;;;;;;364989;109;1961980;-73
2021/07/06 06:14:30;;;;;;;10.44;6.77;;;;;;;;;;366312;109;1962085;-73
2021/07/06 06:15:36;;;;;;;12.41;6.89;;;;;;;;;;366242;109;1962944;-74
2021/07/06 06:16:42;;;;;;;15.95;8.47;;;;;;;;;;363678;109;1961984;-73
2021/07/06 06:17:47;;;;;;;10.97;7.34;;;;;;;;;;364758;109;1961957;-73
2021/07/06 06:19:01;;;;;;;14.28;8.14;;;;;;;;;;392446;104;1986090;-73
2021/07/06 06:20:07;;;;;;;18.70;15.13;;;;;;;;;;366033;107;1968938;-71
2021/07/06 06:21:13;;;;;;;14.41;8.98;;;;;;;;;;363588;105;1962073;-77
2021/07/06 06:22:18;;;;;;;14.91;8.36;;;;;;;;;;361159;109;1962951;-73
2021/07/06 06:23:25;;;;;;;13.52;7.28;;;;;;;;;;372772;106;1961980;-73
2021/07/06 06:24:31;;;;;;;12.51;7.64;;;;;;;;;;362870;110;1963907;-74
2021/07/06 06:25:36;;;;;;;14.79;8.92;;;;;;;;;;363531;108;1961915;-74
2021/07/06 06:26:43;;;;;;;11.17;7.32;;;;;;;;;;376124;106;1963902;-73
2021/07/06 06:27:55;;;;;;;13.35;8.07;;;;;;;;;;362888;103;2071980;-72
2021/07/06 06:29:00;;;;;;;15.83;8.18;;;;;;;;;;320240;106;2264991;-73
2021/07/06 06:30:06;;;;;;;12.19;6.51;;;;;;;;;;334428;107;2131993;-73
2021/07/06 06:31:12;;;;;;;13.23;11.82;;;;;;;;;;377042;106;1962000;-71
2021/07/06 06:32:23;;;;;;;11.93;6.91;;;;;;;;;;373852;109;1986914;-73